Time,TemperatureF,DewpointF,PressureIn,WindDirection,WindDirectionDegrees,WindSpeedMPH,WindSpeedGustMPH,Humidity,HourlyPrecipIn,Conditions,Clouds,dailyrainin,SolarRadiationWatts/m^2,SoftwareType,DateUTC
2013-01-17 00:02:00,5.0,-7.0,-100.00,NW,323,6.0,11.0,58,0.00,,,0.00,0.000000,,2013-01-17 06:02:00,
2013-01-17 00:33:00,5.0,-7.0,-100.00,NW,323,6.0,11.0,58,0.00,,,0.00,0.000000,,2013-01-17 06:33:00,
2013-01-17 00:42:00,5.0,-7.0,-100.00,NW,323,6.0,11.0,58,0.00,,,0.00,0.000000,,2013-01-17 06:42:00,
2013-01-17 00:52:00,5.0,-7.0,-100.00,NW,323,6.0,11.0,58,0.00,,,0.00,0.000000,,2013-01-17 06:52:00,
2013-01-17 01:02:00,4.0,-6.0,-100.00,NW,319,6.0,12.0,61,0.00,,,0.00,0.000000,,2013-01-17 07:02:00,
2013-01-17 01:33:00,4.0,-6.0,-100.00,NW,319,6.0,12.0,61,0.00,,,0.00,0.000000,,2013-01-17 07:33:00,
2013-01-17 01:42:00,4.0,-6.0,-100.00,NW,319,6.0,12.0,61,0.00,,,0.00,0.000000,,2013-01-17 07:42:00,
2013-01-17 01:52:00,4.0,-6.0,-100.00,NW,319,6.0,12.0,61,0.00,,,0.00,0.000000,,2013-01-17 07:52:00,
2013-01-17 02:02:00,3.0,-8.0,-100.00,NW,315,4.0,10.0,59,0.00,,,0.00,0.000000,,2013-01-17 08:02:00,
2013-01-17 02:22:00,3.0,-8.0,-100.00,NW,315,4.0,10.0,59,0.00,,,0.00,0.000000,,2013-01-17 08:22:00,
2013-01-17 02:32:00,3.0,-8.0,-100.00,NW,315,4.0,10.0,59,0.00,,,0.00,0.000000,,2013-01-17 08:32:00,
2013-01-17 02:43:00,3.0,-8.0,-100.00,NW,315,4.0,10.0,59,0.00,,,0.00,0.000000,,2013-01-17 08:43:00,
2013-01-17 02:53:00,3.0,-8.0,-100.00,NW,315,4.0,10.0,59,0.00,,,0.00,0.000000,,2013-01-17 08:53:00,
2013-01-17 03:02:00,0.0,-10.0,-100.00,WNW,302,2.0,8.0,61,0.00,,,0.00,0.000000,,2013-01-17 09:02:00,
2013-01-17 03:33:00,0.0,-10.0,-100.00,WNW,302,2.0,8.0,61,0.00,,,0.00,0.000000,,2013-01-17 09:33:00,
2013-01-17 03:43:00,0.0,-10.0,-100.00,WNW,302,2.0,8.0,61,0.00,,,0.00,0.000000,,2013-01-17 09:43:00,
2013-01-17 03:52:00,0.0,-10.0,-100.00,WNW,302,2.0,8.0,61,0.00,,,0.00,0.000000,,2013-01-17 09:52:00,
2013-01-17 04:02:00,-6.0,-13.0,-100.00,SE,134,0.0,3.0,72,0.00,,,0.00,0.000000,,2013-01-17 10:02:00,
2013-01-17 04:33:00,-6.0,-13.0,-100.00,SE,134,0.0,3.0,72,0.00,,,0.00,0.000000,,2013-01-17 10:33:00,
2013-01-17 04:43:00,-6.0,-13.0,-100.00,SE,134,0.0,3.0,72,0.00,,,0.00,0.000000,,2013-01-17 10:43:00,
2013-01-17 04:53:00,-6.0,-13.0,-100.00,SE,134,0.0,3.0,72,0.00,,,0.00,0.000000,,2013-01-17 10:53:00,
2013-01-17 05:02:00,-1.0,-10.0,-100.00,NW,316,3.0,6.0,65,0.00,,,0.00,0.000000,,2013-01-17 11:02:00,
2013-01-17 05:23:00,-1.0,-10.0,-100.00,NW,316,3.0,6.0,65,0.00,,,0.00,0.000000,,2013-01-17 11:23:00,
2013-01-17 05:33:00,-1.0,-10.0,-100.00,NW,316,3.0,6.0,65,0.00,,,0.00,0.000000,,2013-01-17 11:33:00,
2013-01-17 05:43:00,-1.0,-10.0,-100.00,NW,316,3.0,6.0,65,0.00,,,0.00,0.000000,,2013-01-17 11:43:00,
2013-01-17 05:53:00,-1.0,-10.0,-100.00,NW,316,3.0,6.0,65,0.00,,,0.00,0.000000,,2013-01-17 11:53:00,
2013-01-17 06:02:00,-2.0,-12.0,-100.00,NW,307,2.0,7.0,61,0.00,,,0.00,0.000000,,2013-01-17 12:02:00,
2013-01-17 06:23:00,-2.0,-12.0,-100.00,NW,307,2.0,7.0,61,0.00,,,0.00,0.000000,,2013-01-17 12:23:00,
2013-01-17 06:33:00,-2.0,-12.0,-100.00,NW,307,2.0,7.0,61,0.00,,,0.00,0.000000,,2013-01-17 12:33:00,
2013-01-17 06:43:00,-2.0,-12.0,-100.00,NW,307,2.0,7.0,61,0.00,,,0.00,0.000000,,2013-01-17 12:43:00,
2013-01-17 06:53:00,-2.0,-12.0,-100.00,NW,307,2.0,7.0,61,0.00,,,0.00,0.000000,,2013-01-17 12:53:00,
2013-01-17 07:02:00,-2.0,-14.0,-100.00,WNW,302,4.0,11.0,55,0.00,,,0.00,0.000000,,2013-01-17 13:02:00,
2013-01-17 07:33:00,-2.0,-14.0,-100.00,WNW,302,4.0,11.0,55,0.00,,,0.00,0.000000,,2013-01-17 13:33:00,
2013-01-17 07:43:00,-2.0,-14.0,-100.00,WNW,302,4.0,11.0,55,0.00,,,0.00,0.000000,,2013-01-17 13:43:00,
2013-01-17 07:53:00,-2.0,-14.0,-100.00,WNW,302,4.0,11.0,55,0.00,,,0.00,0.000000,,2013-01-17 13:53:00,
2013-01-17 08:02:00,-1.0,-11.0,-100.00,WNW,292,4.0,8.0,60,0.00,,,0.00,3.000000,,2013-01-17 14:02:00,
2013-01-17 08:33:00,-1.0,-11.0,-100.00,WNW,292,4.0,8.0,60,0.00,,,0.00,3.000000,,2013-01-17 14:33:00,
2013-01-17 08:43:00,-1.0,-11.0,-100.00,WNW,292,4.0,8.0,60,0.00,,,0.00,3.000000,,2013-01-17 14:43:00,
2013-01-17 08:53:00,-1.0,-11.0,-100.00,WNW,292,4.0,8.0,60,0.00,,,0.00,3.000000,,2013-01-17 14:53:00,
2013-01-17 09:02:00,1.0,-10.0,-100.00,West,280,3.0,10.0,58,0.00,,,0.00,29.000000,,2013-01-17 15:02:00,
2013-01-17 09:33:00,1.0,-10.0,-100.00,West,280,3.0,10.0,58,0.00,,,0.00,29.000000,,2013-01-17 15:33:00,
2013-01-17 09:43:00,1.0,-10.0,-100.00,West,280,3.0,10.0,58,0.00,,,0.00,29.000000,,2013-01-17 15:43:00,
2013-01-17 09:53:00,1.0,-10.0,-100.00,West,280,3.0,10.0,58,0.00,,,0.00,29.000000,,2013-01-17 15:53:00,
2013-01-17 10:02:00,3.0,-8.0,-100.00,WNW,301,4.0,9.0,59,0.00,,,0.00,101.000000,,2013-01-17 16:02:00,
2013-01-17 10:33:00,3.0,-8.0,-100.00,WNW,301,4.0,9.0,59,0.00,,,0.00,101.000000,,2013-01-17 16:33:00,
2013-01-17 10:44:00,3.0,-8.0,-100.00,WNW,301,4.0,9.0,59,0.00,,,0.00,101.000000,,2013-01-17 16:44:00,
2013-01-17 10:53:00,3.0,-8.0,-100.00,WNW,301,4.0,9.0,59,0.00,,,0.00,101.000000,,2013-01-17 16:53:00,
2013-01-17 11:02:00,4.0,-5.0,-100.00,NW,312,4.0,10.0,64,0.00,,,0.00,175.000000,,2013-01-17 17:02:00,
2013-01-17 11:33:00,4.0,-5.0,-100.00,NW,312,4.0,10.0,64,0.00,,,0.00,175.000000,,2013-01-17 17:33:00,
2013-01-17 11:43:00,4.0,-5.0,-100.00,NW,312,4.0,10.0,64,0.00,,,0.00,175.000000,,2013-01-17 17:43:00,
2013-01-17 11:53:00,4.0,-5.0,-100.00,NW,312,4.0,10.0,64,0.00,,,0.00,175.000000,,2013-01-17 17:53:00,
2013-01-17 12:02:00,6.0,-5.0,-100.00,WNW,286,4.0,10.0,60,0.00,,,0.00,248.000000,,2013-01-17 18:02:00,
2013-01-17 12:23:00,6.0,-5.0,-100.00,WNW,286,4.0,10.0,60,0.00,,,0.00,248.000000,,2013-01-17 18:23:00,
2013-01-17 12:34:00,6.0,-5.0,-100.00,WNW,286,4.0,10.0,60,0.00,,,0.00,248.000000,,2013-01-17 18:34:00,
2013-01-17 12:44:00,6.0,-5.0,-100.00,WNW,286,4.0,10.0,60,0.00,,,0.00,248.000000,,2013-01-17 18:44:00,
2013-01-17 12:53:00,6.0,-5.0,-100.00,WNW,286,4.0,10.0,60,0.00,,,0.00,248.000000,,2013-01-17 18:53:00,
2013-01-17 15:02:00,10.0,-4.0,-100.00,West,266,4.0,10.0,53,-99.99,,,0.00,267.000000,,2013-01-17 21:02:00,
2013-01-17 15:34:00,10.0,-4.0,-100.00,West,266,4.0,10.0,53,-99.99,,,0.00,267.000000,,2013-01-17 21:34:00,
2013-01-17 15:43:00,10.0,-4.0,-100.00,West,266,4.0,10.0,53,-99.99,,,0.00,267.000000,,2013-01-17 21:43:00,
2013-01-17 15:53:00,10.0,-4.0,-100.00,West,266,4.0,10.0,53,-99.99,,,0.00,267.000000,,2013-01-17 21:53:00,
2013-01-17 16:02:00,8.0,-4.0,-100.00,West,269,3.0,9.0,57,0.00,,,0.00,97.000000,,2013-01-17 22:02:00,
2013-01-17 16:23:00,8.0,-4.0,-100.00,West,269,3.0,9.0,57,0.00,,,0.00,97.000000,,2013-01-17 22:23:00,
2013-01-17 16:33:00,8.0,-4.0,-100.00,West,269,3.0,9.0,57,0.00,,,0.00,97.000000,,2013-01-17 22:33:00,
2013-01-17 16:43:00,8.0,-4.0,-100.00,West,269,3.0,9.0,57,0.00,,,0.00,97.000000,,2013-01-17 22:43:00,
2013-01-17 16:53:00,8.0,-4.0,-100.00,West,269,3.0,9.0,57,0.00,,,0.00,97.000000,,2013-01-17 22:53:00,
2013-01-17 17:02:00,7.0,-3.0,-100.00,NW,312,1.0,7.0,62,0.00,,,0.00,19.000000,,2013-01-17 23:02:00,
2013-01-17 17:33:00,7.0,-3.0,-100.00,NW,312,1.0,7.0,62,0.00,,,0.00,19.000000,,2013-01-17 23:33:00,
2013-01-17 17:43:00,7.0,-3.0,-100.00,NW,312,1.0,7.0,62,0.00,,,0.00,19.000000,,2013-01-17 23:43:00,
2013-01-17 17:53:00,7.0,-3.0,-100.00,NW,312,1.0,7.0,62,0.00,,,0.00,19.000000,,2013-01-17 23:53:00,
2013-01-17 18:02:00,-1.0,-8.0,-100.00,NE,45,0.0,3.0,73,0.00,,,0.00,0.000000,,2013-01-18 00:02:00,
2013-01-17 18:23:00,-1.0,-8.0,-100.00,NE,45,0.0,3.0,73,0.00,,,0.00,0.000000,,2013-01-18 00:23:00,
2013-01-17 18:33:00,-1.0,-8.0,-100.00,NE,45,0.0,3.0,73,0.00,,,0.00,0.000000,,2013-01-18 00:33:00,
2013-01-17 18:43:00,-1.0,-8.0,-100.00,NE,45,0.0,3.0,73,0.00,,,0.00,0.000000,,2013-01-18 00:43:00,
2013-01-17 18:53:00,-1.0,-8.0,-100.00,NE,45,0.0,3.0,73,0.00,,,0.00,0.000000,,2013-01-18 00:53:00,
2013-01-17 19:02:00,-6.0,-12.0,-100.00,NNE,15,0.0,1.0,75,0.00,,,0.00,0.000000,,2013-01-18 01:02:00,
2013-01-17 19:33:00,-6.0,-12.0,-100.00,NNE,15,0.0,1.0,75,0.00,,,0.00,0.000000,,2013-01-18 01:33:00,
2013-01-17 19:43:00,-6.0,-12.0,-100.00,NNE,15,0.0,1.0,75,0.00,,,0.00,0.000000,,2013-01-18 01:43:00,
2013-01-17 19:53:00,-6.0,-12.0,-100.00,NNE,15,0.0,1.0,75,0.00,,,0.00,0.000000,,2013-01-18 01:53:00,
2013-01-17 20:02:00,-9.0,-16.0,-100.00,ENE,65,0.0,2.0,71,0.00,,,0.00,0.000000,,2013-01-18 02:02:00,
2013-01-17 20:33:00,-9.0,-16.0,-100.00,ENE,65,0.0,2.0,71,0.00,,,0.00,0.000000,,2013-01-18 02:33:00,
2013-01-17 20:43:00,-9.0,-16.0,-100.00,ENE,65,0.0,2.0,71,0.00,,,0.00,0.000000,,2013-01-18 02:43:00,
2013-01-17 20:53:00,-9.0,-16.0,-100.00,ENE,65,0.0,2.0,71,0.00,,,0.00,0.000000,,2013-01-18 02:53:00,
2013-01-17 21:02:00,-11.0,-17.0,-100.00,NE,37,0.0,0.0,72,0.00,,,0.00,0.000000,,2013-01-18 03:02:00,
2013-01-17 21:33:00,-11.0,-17.0,-100.00,NE,37,0.0,0.0,72,0.00,,,0.00,0.000000,,2013-01-18 03:33:00,
2013-01-17 21:43:00,-11.0,-17.0,-100.00,NE,37,0.0,0.0,72,0.00,,,0.00,0.000000,,2013-01-18 03:43:00,
2013-01-17 21:53:00,-11.0,-17.0,-100.00,NE,37,0.0,0.0,72,0.00,,,0.00,0.000000,,2013-01-18 03:53:00,
2013-01-17 22:02:00,-12.0,-19.0,-100.00,North,3,0.0,2.0,70,0.00,,,0.00,0.000000,,2013-01-18 04:02:00,
2013-01-17 22:33:00,-12.0,-19.0,-100.00,North,3,0.0,2.0,70,0.00,,,0.00,0.000000,,2013-01-18 04:33:00,
2013-01-17 22:42:00,-12.0,-19.0,-100.00,North,3,0.0,2.0,70,0.00,,,0.00,0.000000,,2013-01-18 04:42:00,
2013-01-17 22:53:00,-12.0,-19.0,-100.00,North,3,0.0,2.0,70,0.00,,,0.00,0.000000,,2013-01-18 04:53:00,
2013-01-17 23:02:00,-12.0,-20.0,-100.00,East,83,0.0,2.0,68,0.00,,,0.00,0.000000,,2013-01-18 05:02:00,
2013-01-17 23:22:00,-12.0,-20.0,-100.00,East,83,0.0,2.0,68,0.00,,,0.00,0.000000,,2013-01-18 05:22:00,
2013-01-17 23:33:00,-12.0,-20.0,-100.00,East,83,0.0,2.0,68,0.00,,,0.00,0.000000,,2013-01-18 05:33:00,
2013-01-17 23:43:00,-12.0,-20.0,-100.00,East,83,0.0,2.0,68,0.00,,,0.00,0.000000,,2013-01-18 05:43:00,
2013-01-17 23:53:00,-12.0,-20.0,-100.00,East,83,0.0,2.0,68,0.00,,,0.00,0.000000,,2013-01-18 05:53:00,